sensor_id;sensor_type;location;lat;lon;timestamp;P1;durP1;ratioP1;P2;durP2;ratioP2
7529;SDS011;3806;52.270;10.544;2024-03-22T00:01:11;11.00;;;6.65;;
7529;SDS011;3806;52.270;10.544;2024-03-22T00:03:36;10.90;;;6.05;;
7529;SDS011;3806;52.270;10.544;2024-03-22T00:06:02;8.52;;;5.78;;
7529;SDS011;3806;52.270;10.544;2024-03-22T00:08:27;11.20;;;5.35;;
7529;SDS011;3806;52.270;10.544;2024-03-22T00:10:53;9.70;;;6.50;;
7529;SDS011;3806;52.270;10.544;2024-03-22T00:13:18;13.05;;;6.30;;
7529;SDS011;3806;52.270;10.544;2024-03-22T00:15:44;10.82;;;6.65;;
7529;SDS011;3806;52.270;10.544;2024-03-22T00:18:10;12.25;;;7.30;;
7529;SDS011;3806;52.270;10.544;2024-03-22T00:20:36;12.82;;;6.68;;
7529;SDS011;3806;52.270;10.544;2024-03-22T00:23:01;13.57;;;6.45;;
7529;SDS011;3806;52.270;10.544;2024-03-22T00:25:27;14.20;;;6.43;;
7529;SDS011;3806;52.270;10.544;2024-03-22T00:27:52;11.50;;;6.38;;
7529;SDS011;3806;52.270;10.544;2024-03-22T00:30:19;11.80;;;7.30;;
7529;SDS011;3806;52.270;10.544;2024-03-22T00:32:44;15.60;;;7.82;;
7529;SDS011;3806;52.270;10.544;2024-03-22T00:35:10;12.77;;;6.95;;
7529;SDS011;3806;52.270;10.544;2024-03-22T00:37:35;13.30;;;7.43;;
7529;SDS011;3806;52.270;10.544;2024-03-22T00:40:01;14.23;;;8.93;;
7529;SDS011;3806;52.270;10.544;2024-03-22T00:42:27;13.57;;;7.63;;
7529;SDS011;3806;52.270;10.544;2024-03-22T00:44:52;16.17;;;7.97;;
7529;SDS011;3806;52.270;10.544;2024-03-22T00:47:18;13.48;;;7.05;;
7529;SDS011;3806;52.270;10.544;2024-03-22T00:49:43;14.68;;;8.63;;
7529;SDS011;3806;52.270;10.544;2024-03-22T00:52:09;15.45;;;8.40;;
7529;SDS011;3806;52.270;10.544;2024-03-22T00:54:34;15.25;;;10.15;;
7529;SDS011;3806;52.270;10.544;2024-03-22T00:57:00;16.38;;;10.40;;
7529;SDS011;3806;52.270;10.544;2024-03-22T00:59:26;18.83;;;9.18;;
7529;SDS011;3806;52.270;10.544;2024-03-22T01:01:52;17.13;;;9.77;;
7529;SDS011;3806;52.270;10.544;2024-03-22T01:04:17;15.23;;;10.32;;
7529;SDS011;3806;52.270;10.544;2024-03-22T01:06:42;16.25;;;8.68;;
7529;SDS011;3806;52.270;10.544;2024-03-22T01:09:08;21.88;;;9.52;;
7529;SDS011;3806;52.270;10.544;2024-03-22T01:11:33;21.25;;;10.75;;
7529;SDS011;3806;52.270;10.544;2024-03-22T01:13:59;19.48;;;11.43;;
7529;SDS011;3806;52.270;10.544;2024-03-22T01:16:24;19.13;;;11.00;;
7529;SDS011;3806;52.270;10.544;2024-03-22T01:18:50;19.95;;;10.48;;
7529;SDS011;3806;52.270;10.544;2024-03-22T01:21:15;19.67;;;11.25;;
7529;SDS011;3806;52.270;10.544;2024-03-22T01:23:41;22.42;;;11.98;;
7529;SDS011;3806;52.270;10.544;2024-03-22T01:26:06;19.67;;;11.75;;
7529;SDS011;3806;52.270;10.544;2024-03-22T01:28:32;24.25;;;12.00;;
7529;SDS011;3806;52.270;10.544;2024-03-22T01:30:57;22.33;;;11.38;;
7529;SDS011;3806;52.270;10.544;2024-03-22T01:33:23;20.60;;;11.38;;
7529;SDS011;3806;52.270;10.544;2024-03-22T01:35:48;24.50;;;11.95;;
7529;SDS011;3806;52.270;10.544;2024-03-22T01:38:14;22.65;;;11.90;;
7529;SDS011;3806;52.270;10.544;2024-03-22T01:40:39;22.38;;;12.20;;
7529;SDS011;3806;52.270;10.544;2024-03-22T01:43:05;22.58;;;12.35;;
7529;SDS011;3806;52.270;10.544;2024-03-22T01:45:31;23.73;;;13.23;;
7529;SDS011;3806;52.270;10.544;2024-03-22T01:47:58;22.73;;;12.35;;
7529;SDS011;3806;52.270;10.544;2024-03-22T01:50:24;24.10;;;13.43;;
7529;SDS011;3806;52.270;10.544;2024-03-22T01:52:50;24.17;;;12.77;;
7529;SDS011;3806;52.270;10.544;2024-03-22T01:55:16;27.67;;;13.98;;
7529;SDS011;3806;52.270;10.544;2024-03-22T01:57:41;22.90;;;13.57;;
7529;SDS011;3806;52.270;10.544;2024-03-22T02:00:08;26.38;;;13.20;;
7529;SDS011;3806;52.270;10.544;2024-03-22T02:02:34;27.50;;;13.73;;
7529;SDS011;3806;52.270;10.544;2024-03-22T02:05:11;24.20;;;13.27;;
7529;SDS011;3806;52.270;10.544;2024-03-22T02:07:40;24.23;;;12.85;;
7529;SDS011;3806;52.270;10.544;2024-03-22T02:10:07;25.00;;;12.77;;
7529;SDS011;3806;52.270;10.544;2024-03-22T02:12:35;19.65;;;12.30;;
7529;SDS011;3806;52.270;10.544;2024-03-22T02:15:02;20.00;;;12.73;;
7529;SDS011;3806;52.270;10.544;2024-03-22T02:17:27;25.30;;;12.68;;
7529;SDS011;3806;52.270;10.544;2024-03-22T02:19:53;22.38;;;12.88;;
7529;SDS011;3806;52.270;10.544;2024-03-22T02:22:19;20.52;;;11.52;;
7529;SDS011;3806;52.270;10.544;2024-03-22T02:24:44;25.17;;;12.90;;
7529;SDS011;3806;52.270;10.544;2024-03-22T02:27:10;20.75;;;11.98;;
7529;SDS011;3806;52.270;10.544;2024-03-22T02:29:35;27.23;;;13.80;;
7529;SDS011;3806;52.270;10.544;2024-03-22T02:32:01;20.67;;;11.95;;
7529;SDS011;3806;52.270;10.544;2024-03-22T02:34:26;19.40;;;12.43;;
7529;SDS011;3806;52.270;10.544;2024-03-22T02:36:51;26.35;;;13.43;;
7529;SDS011;3806;52.270;10.544;2024-03-22T02:39:18;21.23;;;12.48;;
7529;SDS011;3806;52.270;10.544;2024-03-22T02:41:43;21.23;;;11.75;;
7529;SDS011;3806;52.270;10.544;2024-03-22T02:44:09;22.88;;;12.70;;
7529;SDS011;3806;52.270;10.544;2024-03-22T02:46:34;20.65;;;11.80;;
7529;SDS011;3806;52.270;10.544;2024-03-22T02:49:00;22.88;;;13.00;;
7529;SDS011;3806;52.270;10.544;2024-03-22T02:51:25;22.75;;;11.23;;
7529;SDS011;3806;52.270;10.544;2024-03-22T02:53:51;24.38;;;12.50;;
7529;SDS011;3806;52.270;10.544;2024-03-22T02:56:16;19.30;;;11.52;;
7529;SDS011;3806;52.270;10.544;2024-03-22T02:58:42;23.98;;;13.27;;
7529;SDS011;3806;52.270;10.544;2024-03-22T03:01:07;23.02;;;12.35;;
7529;SDS011;3806;52.270;10.544;2024-03-22T03:03:33;24.38;;;11.52;;
7529;SDS011;3806;52.270;10.544;2024-03-22T03:05:59;25.05;;;11.90;;
7529;SDS011;3806;52.270;10.544;2024-03-22T03:08:24;23.48;;;12.25;;
7529;SDS011;3806;52.270;10.544;2024-03-22T03:10:50;25.23;;;11.85;;
7529;SDS011;3806;52.270;10.544;2024-03-22T03:13:15;26.17;;;14.32;;
7529;SDS011;3806;52.270;10.544;2024-03-22T03:15:41;23.50;;;13.18;;
7529;SDS011;3806;52.270;10.544;2024-03-22T03:18:06;23.15;;;13.50;;
7529;SDS011;3806;52.270;10.544;2024-03-22T03:20:32;24.63;;;12.60;;
7529;SDS011;3806;52.270;10.544;2024-03-22T03:22:57;24.42;;;13.73;;
7529;SDS011;3806;52.270;10.544;2024-03-22T03:25:24;26.95;;;13.52;;
7529;SDS011;3806;52.270;10.544;2024-03-22T03:27:52;26.88;;;14.13;;
7529;SDS011;3806;52.270;10.544;2024-03-22T03:30:18;22.05;;;13.05;;
7529;SDS011;3806;52.270;10.544;2024-03-22T03:32:44;22.55;;;13.05;;
7529;SDS011;3806;52.270;10.544;2024-03-22T03:35:09;26.38;;;13.07;;
7529;SDS011;3806;52.270;10.544;2024-03-22T03:37:35;22.52;;;12.80;;
7529;SDS011;3806;52.270;10.544;2024-03-22T03:40:00;27.70;;;14.02;;
7529;SDS011;3806;52.270;10.544;2024-03-22T03:42:26;20.13;;;12.05;;
7529;SDS011;3806;52.270;10.544;2024-03-22T03:44:51;26.85;;;13.32;;
7529;SDS011;3806;52.270;10.544;2024-03-22T03:47:17;27.40;;;12.35;;
7529;SDS011;3806;52.270;10.544;2024-03-22T03:49:44;25.75;;;13.95;;
7529;SDS011;3806;52.270;10.544;2024-03-22T03:52:10;22.60;;;12.75;;
7529;SDS011;3806;52.270;10.544;2024-03-22T03:54:36;24.02;;;13.23;;
7529;SDS011;3806;52.270;10.544;2024-03-22T03:57:02;22.48;;;12.30;;
7529;SDS011;3806;52.270;10.544;2024-03-22T03:59:27;24.77;;;13.77;;
7529;SDS011;3806;52.270;10.544;2024-03-22T04:01:53;23.52;;;13.07;;
7529;SDS011;3806;52.270;10.544;2024-03-22T04:04:19;24.48;;;13.32;;
7529;SDS011;3806;52.270;10.544;2024-03-22T04:06:44;24.30;;;13.45;;
7529;SDS011;3806;52.270;10.544;2024-03-22T04:09:10;27.33;;;13.68;;
7529;SDS011;3806;52.270;10.544;2024-03-22T04:11:35;21.60;;;12.57;;
7529;SDS011;3806;52.270;10.544;2024-03-22T04:14:02;23.48;;;12.23;;
7529;SDS011;3806;52.270;10.544;2024-03-22T04:16:28;23.98;;;11.98;;
7529;SDS011;3806;52.270;10.544;2024-03-22T04:18:53;20.27;;;12.20;;
7529;SDS011;3806;52.270;10.544;2024-03-22T04:21:19;20.88;;;11.43;;
7529;SDS011;3806;52.270;10.544;2024-03-22T04:23:44;20.88;;;12.55;;
7529;SDS011;3806;52.270;10.544;2024-03-22T04:26:10;21.95;;;12.52;;
7529;SDS011;3806;52.270;10.544;2024-03-22T04:28:35;24.95;;;12.15;;
7529;SDS011;3806;52.270;10.544;2024-03-22T04:31:05;24.85;;;11.73;;
7529;SDS011;3806;52.270;10.544;2024-03-22T04:33:33;23.38;;;11.93;;
7529;SDS011;3806;52.270;10.544;2024-03-22T04:35:58;22.65;;;12.98;;
7529;SDS011;3806;52.270;10.544;2024-03-22T04:38:25;24.00;;;13.02;;
7529;SDS011;3806;52.270;10.544;2024-03-22T04:40:51;20.30;;;10.68;;
7529;SDS011;3806;52.270;10.544;2024-03-22T04:43:17;23.00;;;12.27;;
7529;SDS011;3806;52.270;10.544;2024-03-22T04:45:43;23.05;;;12.13;;
7529;SDS011;3806;52.270;10.544;2024-03-22T04:48:09;22.33;;;10.95;;
7529;SDS011;3806;52.270;10.544;2024-03-22T04:50:35;19.40;;;11.38;;
7529;SDS011;3806;52.270;10.544;2024-03-22T04:53:01;21.63;;;10.68;;
7529;SDS011;3806;52.270;10.544;2024-03-22T04:55:27;24.02;;;13.00;;
7529;SDS011;3806;52.270;10.544;2024-03-22T04:57:52;23.58;;;12.07;;
7529;SDS011;3806;52.270;10.544;2024-03-22T05:00:18;21.15;;;11.73;;
7529;SDS011;3806;52.270;10.544;2024-03-22T05:02:44;23.98;;;11.85;;
7529;SDS011;3806;52.270;10.544;2024-03-22T05:05:09;19.55;;;10.65;;
7529;SDS011;3806;52.270;10.544;2024-03-22T05:07:35;24.08;;;12.93;;
7529;SDS011;3806;52.270;10.544;2024-03-22T05:10:00;23.35;;;12.10;;
7529;SDS011;3806;52.270;10.544;2024-03-22T05:12:26;22.17;;;11.52;;
7529;SDS011;3806;52.270;10.544;2024-03-22T05:14:52;24.63;;;11.23;;
7529;SDS011;3806;52.270;10.544;2024-03-22T05:17:17;23.48;;;11.60;;
7529;SDS011;3806;52.270;10.544;2024-03-22T05:19:43;19.73;;;11.27;;
7529;SDS011;3806;52.270;10.544;2024-03-22T05:22:08;22.48;;;10.90;;
7529;SDS011;3806;52.270;10.544;2024-03-22T05:24:33;22.95;;;12.55;;
7529;SDS011;3806;52.270;10.544;2024-03-22T05:26:59;19.42;;;10.65;;
7529;SDS011;3806;52.270;10.544;2024-03-22T05:29:25;22.80;;;10.70;;
7529;SDS011;3806;52.270;10.544;2024-03-22T05:31:50;24.77;;;11.15;;
7529;SDS011;3806;52.270;10.544;2024-03-22T05:34:17;21.65;;;11.90;;
7529;SDS011;3806;52.270;10.544;2024-03-22T05:36:43;24.17;;;11.88;;
7529;SDS011;3806;52.270;10.544;2024-03-22T05:39:09;23.42;;;12.13;;
7529;SDS011;3806;52.270;10.544;2024-03-22T05:41:37;22.17;;;11.50;;
7529;SDS011;3806;52.270;10.544;2024-03-22T05:44:03;23.67;;;11.48;;
7529;SDS011;3806;52.270;10.544;2024-03-22T05:46:29;26.83;;;12.43;;
7529;SDS011;3806;52.270;10.544;2024-03-22T05:48:55;23.73;;;12.32;;
7529;SDS011;3806;52.270;10.544;2024-03-22T05:51:21;21.15;;;11.45;;
7529;SDS011;3806;52.270;10.544;2024-03-22T05:53:46;22.15;;;12.38;;
7529;SDS011;3806;52.270;10.544;2024-03-22T05:56:12;27.45;;;12.10;;
7529;SDS011;3806;52.270;10.544;2024-03-22T05:58:37;25.20;;;12.30;;
7529;SDS011;3806;52.270;10.544;2024-03-22T06:01:03;24.73;;;11.70;;
7529;SDS011;3806;52.270;10.544;2024-03-22T06:03:29;24.25;;;10.50;;
7529;SDS011;3806;52.270;10.544;2024-03-22T06:05:55;23.92;;;11.45;;
7529;SDS011;3806;52.270;10.544;2024-03-22T06:08:24;22.65;;;11.32;;
7529;SDS011;3806;52.270;10.544;2024-03-22T06:10:52;19.77;;;11.02;;
7529;SDS011;3806;52.270;10.544;2024-03-22T06:13:19;20.92;;;11.13;;
7529;SDS011;3806;52.270;10.544;2024-03-22T06:15:44;23.73;;;12.05;;
7529;SDS011;3806;52.270;10.544;2024-03-22T06:18:14;23.30;;;11.68;;
7529;SDS011;3806;52.270;10.544;2024-03-22T06:20:39;24.30;;;12.60;;
7529;SDS011;3806;52.270;10.544;2024-03-22T06:23:05;23.45;;;11.27;;
7529;SDS011;3806;52.270;10.544;2024-03-22T06:25:30;23.25;;;11.80;;
7529;SDS011;3806;52.270;10.544;2024-03-22T06:27:56;22.38;;;11.65;;
7529;SDS011;3806;52.270;10.544;2024-03-22T06:30:21;27.00;;;11.70;;
7529;SDS011;3806;52.270;10.544;2024-03-22T06:32:47;23.15;;;13.05;;
7529;SDS011;3806;52.270;10.544;2024-03-22T06:35:12;25.52;;;12.63;;
7529;SDS011;3806;52.270;10.544;2024-03-22T06:37:38;25.70;;;12.68;;
7529;SDS011;3806;52.270;10.544;2024-03-22T06:40:05;24.75;;;12.35;;
7529;SDS011;3806;52.270;10.544;2024-03-22T06:42:32;27.25;;;13.63;;
7529;SDS011;3806;52.270;10.544;2024-03-22T06:44:57;30.27;;;13.05;;
7529;SDS011;3806;52.270;10.544;2024-03-22T06:47:22;26.70;;;13.68;;
7529;SDS011;3806;52.270;10.544;2024-03-22T06:49:48;23.33;;;12.80;;
7529;SDS011;3806;52.270;10.544;2024-03-22T06:52:14;23.50;;;12.52;;
7529;SDS011;3806;52.270;10.544;2024-03-22T06:54:40;28.25;;;13.07;;
7529;SDS011;3806;52.270;10.544;2024-03-22T06:57:05;25.75;;;12.85;;
7529;SDS011;3806;52.270;10.544;2024-03-22T06:59:31;23.42;;;12.13;;
7529;SDS011;3806;52.270;10.544;2024-03-22T07:01:57;25.45;;;13.05;;
7529;SDS011;3806;52.270;10.544;2024-03-22T07:04:22;24.13;;;12.10;;
7529;SDS011;3806;52.270;10.544;2024-03-22T07:06:48;23.08;;;11.60;;
7529;SDS011;3806;52.270;10.544;2024-03-22T07:09:13;25.30;;;12.30;;
7529;SDS011;3806;52.270;10.544;2024-03-22T07:11:39;23.00;;;11.63;;
7529;SDS011;3806;52.270;10.544;2024-03-22T07:14:05;23.60;;;11.05;;
7529;SDS011;3806;52.270;10.544;2024-03-22T07:16:30;23.15;;;11.70;;
7529;SDS011;3806;52.270;10.544;2024-03-22T07:18:56;21.60;;;12.02;;
7529;SDS011;3806;52.270;10.544;2024-03-22T07:21:21;23.05;;;11.93;;
7529;SDS011;3806;52.270;10.544;2024-03-22T07:23:47;23.02;;;12.20;;
7529;SDS011;3806;52.270;10.544;2024-03-22T07:26:12;22.70;;;11.40;;
7529;SDS011;3806;52.270;10.544;2024-03-22T07:28:38;26.23;;;12.48;;
7529;SDS011;3806;52.270;10.544;2024-03-22T07:31:03;24.65;;;12.63;;
7529;SDS011;3806;52.270;10.544;2024-03-22T07:33:30;26.35;;;11.60;;
7529;SDS011;3806;52.270;10.544;2024-03-22T07:35:56;22.65;;;11.05;;
7529;SDS011;3806;52.270;10.544;2024-03-22T07:38:27;20.40;;;10.70;;
7529;SDS011;3806;52.270;10.544;2024-03-22T07:40:52;21.27;;;10.85;;
7529;SDS011;3806;52.270;10.544;2024-03-22T07:43:18;26.00;;;12.30;;
7529;SDS011;3806;52.270;10.544;2024-03-22T07:45:43;22.95;;;11.93;;
7529;SDS011;3806;52.270;10.544;2024-03-22T07:48:09;23.00;;;11.38;;
7529;SDS011;3806;52.270;10.544;2024-03-22T07:50:35;19.10;;;10.63;;
7529;SDS011;3806;52.270;10.544;2024-03-22T07:53:00;22.92;;;11.02;;
7529;SDS011;3806;52.270;10.544;2024-03-22T07:55:26;23.35;;;10.45;;
7529;SDS011;3806;52.270;10.544;2024-03-22T07:57:51;24.55;;;11.93;;
7529;SDS011;3806;52.270;10.544;2024-03-22T08:00:17;22.73;;;10.13;;
7529;SDS011;3806;52.270;10.544;2024-03-22T08:02:43;19.17;;;10.20;;
7529;SDS011;3806;52.270;10.544;2024-03-22T08:05:08;23.70;;;10.70;;
7529;SDS011;3806;52.270;10.544;2024-03-22T08:07:34;20.25;;;10.77;;
7529;SDS011;3806;52.270;10.544;2024-03-22T08:10:00;20.67;;;10.30;;
7529;SDS011;3806;52.270;10.544;2024-03-22T08:12:27;22.05;;;11.70;;
7529;SDS011;3806;52.270;10.544;2024-03-22T08:14:53;21.65;;;10.35;;
7529;SDS011;3806;52.270;10.544;2024-03-22T08:17:18;16.00;;;8.38;;
7529;SDS011;3806;52.270;10.544;2024-03-22T08:19:44;20.83;;;10.35;;
7529;SDS011;3806;52.270;10.544;2024-03-22T08:22:09;20.15;;;10.00;;
7529;SDS011;3806;52.270;10.544;2024-03-22T08:24:35;19.92;;;9.30;;
7529;SDS011;3806;52.270;10.544;2024-03-22T08:27:00;20.35;;;10.35;;
7529;SDS011;3806;52.270;10.544;2024-03-22T08:29:26;18.38;;;9.77;;
7529;SDS011;3806;52.270;10.544;2024-03-22T08:31:51;18.27;;;9.63;;
7529;SDS011;3806;52.270;10.544;2024-03-22T08:34:18;23.20;;;10.75;;
7529;SDS011;3806;52.270;10.544;2024-03-22T08:36:43;23.63;;;11.45;;
7529;SDS011;3806;52.270;10.544;2024-03-22T08:39:09;18.73;;;10.18;;
7529;SDS011;3806;52.270;10.544;2024-03-22T08:41:35;17.40;;;10.02;;
7529;SDS011;3806;52.270;10.544;2024-03-22T08:44:02;20.42;;;11.35;;
7529;SDS011;3806;52.270;10.544;2024-03-22T08:46:27;19.52;;;9.55;;
7529;SDS011;3806;52.270;10.544;2024-03-22T08:48:53;24.38;;;10.50;;
7529;SDS011;3806;52.270;10.544;2024-03-22T08:51:19;19.83;;;10.93;;
7529;SDS011;3806;52.270;10.544;2024-03-22T08:53:44;24.30;;;12.18;;
7529;SDS011;3806;52.270;10.544;2024-03-22T08:56:10;22.92;;;10.82;;
7529;SDS011;3806;52.270;10.544;2024-03-22T08:58:36;23.85;;;10.77;;
7529;SDS011;3806;52.270;10.544;2024-03-22T09:01:01;24.00;;;10.70;;
7529;SDS011;3806;52.270;10.544;2024-03-22T09:03:27;20.48;;;9.95;;
7529;SDS011;3806;52.270;10.544;2024-03-22T09:05:53;25.23;;;11.88;;
7529;SDS011;3806;52.270;10.544;2024-03-22T09:08:18;25.15;;;11.90;;
7529;SDS011;3806;52.270;10.544;2024-03-22T09:10:45;21.95;;;11.77;;
7529;SDS011;3806;52.270;10.544;2024-03-22T09:13:10;24.02;;;10.52;;
7529;SDS011;3806;52.270;10.544;2024-03-22T09:15:37;19.00;;;10.05;;
7529;SDS011;3806;52.270;10.544;2024-03-22T09:18:03;20.95;;;11.27;;
7529;SDS011;3806;52.270;10.544;2024-03-22T09:20:29;20.90;;;10.32;;
7529;SDS011;3806;52.270;10.544;2024-03-22T09:22:54;20.27;;;10.48;;
7529;SDS011;3806;52.270;10.544;2024-03-22T09:25:20;21.42;;;11.63;;
7529;SDS011;3806;52.270;10.544;2024-03-22T09:27:46;20.50;;;9.65;;
7529;SDS011;3806;52.270;10.544;2024-03-22T09:30:11;24.95;;;11.65;;
7529;SDS011;3806;52.270;10.544;2024-03-22T09:32:37;22.27;;;10.73;;
7529;SDS011;3806;52.270;10.544;2024-03-22T09:35:03;19.35;;;10.60;;
7529;SDS011;3806;52.270;10.544;2024-03-22T09:37:29;23.45;;;10.55;;
7529;SDS011;3806;52.270;10.544;2024-03-22T09:39:54;21.27;;;10.45;;
7529;SDS011;3806;52.270;10.544;2024-03-22T09:42:20;21.73;;;10.93;;
7529;SDS011;3806;52.270;10.544;2024-03-22T09:44:48;21.20;;;11.43;;
7529;SDS011;3806;52.270;10.544;2024-03-22T09:47:15;24.77;;;11.48;;
7529;SDS011;3806;52.270;10.544;2024-03-22T09:49:42;27.92;;;12.18;;
7529;SDS011;3806;52.270;10.544;2024-03-22T09:52:14;21.67;;;10.15;;
7529;SDS011;3806;52.270;10.544;2024-03-22T09:54:44;24.05;;;10.95;;
7529;SDS011;3806;52.270;10.544;2024-03-22T09:57:11;27.13;;;11.52;;
7529;SDS011;3806;52.270;10.544;2024-03-22T09:59:40;22.45;;;10.25;;
7529;SDS011;3806;52.270;10.544;2024-03-22T10:02:07;20.50;;;11.25;;
7529;SDS011;3806;52.270;10.544;2024-03-22T10:04:35;25.40;;;11.55;;
7529;SDS011;3806;52.270;10.544;2024-03-22T10:07:02;22.58;;;10.88;;
7529;SDS011;3806;52.270;10.544;2024-03-22T10:09:28;19.95;;;10.48;;
7529;SDS011;3806;52.270;10.544;2024-03-22T10:11:55;21.92;;;10.27;;
7529;SDS011;3806;52.270;10.544;2024-03-22T10:14:21;22.25;;;11.15;;
7529;SDS011;3806;52.270;10.544;2024-03-22T10:16:46;23.33;;;10.18;;
7529;SDS011;3806;52.270;10.544;2024-03-22T10:19:12;19.00;;;10.38;;
7529;SDS011;3806;52.270;10.544;2024-03-22T10:21:37;24.85;;;10.23;;
7529;SDS011;3806;52.270;10.544;2024-03-22T10:24:03;22.10;;;11.15;;
7529;SDS011;3806;52.270;10.544;2024-03-22T10:26:29;19.85;;;9.75;;
7529;SDS011;3806;52.270;10.544;2024-03-22T10:28:57;20.98;;;10.25;;
7529;SDS011;3806;52.270;10.544;2024-03-22T10:31:23;24.10;;;10.60;;
7529;SDS011;3806;52.270;10.544;2024-03-22T10:33:48;18.02;;;9.63;;
7529;SDS011;3806;52.270;10.544;2024-03-22T10:36:15;17.65;;;9.98;;
7529;SDS011;3806;52.270;10.544;2024-03-22T10:38:41;21.02;;;10.32;;
7529;SDS011;3806;52.270;10.544;2024-03-22T10:41:09;18.42;;;8.95;;
7529;SDS011;3806;52.270;10.544;2024-03-22T10:43:34;19.75;;;10.25;;
7529;SDS011;3806;52.270;10.544;2024-03-22T10:46:01;15.93;;;8.77;;
7529;SDS011;3806;52.270;10.544;2024-03-22T10:48:29;20.90;;;9.45;;
7529;SDS011;3806;52.270;10.544;2024-03-22T10:50:55;22.17;;;10.93;;
7529;SDS011;3806;52.270;10.544;2024-03-22T10:53:24;17.77;;;8.80;;
7529;SDS011;3806;52.270;10.544;2024-03-22T10:55:52;18.20;;;9.60;;
7529;SDS011;3806;52.270;10.544;2024-03-22T10:58:22;19.52;;;9.45;;
7529;SDS011;3806;52.270;10.544;2024-03-22T11:00:53;17.92;;;10.20;;
7529;SDS011;3806;52.270;10.544;2024-03-22T11:03:24;18.42;;;9.82;;
7529;SDS011;3806;52.270;10.544;2024-03-22T11:05:53;17.83;;;9.23;;
7529;SDS011;3806;52.270;10.544;2024-03-22T11:08:24;16.70;;;9.48;;
7529;SDS011;3806;52.270;10.544;2024-03-22T11:10:54;18.67;;;8.88;;
7529;SDS011;3806;52.270;10.544;2024-03-22T11:13:21;22.20;;;9.82;;
7529;SDS011;3806;52.270;10.544;2024-03-22T11:15:50;18.35;;;9.32;;
7529;SDS011;3806;52.270;10.544;2024-03-22T11:18:16;17.83;;;9.52;;
7529;SDS011;3806;52.270;10.544;2024-03-22T11:20:42;16.35;;;9.48;;
7529;SDS011;3806;52.270;10.544;2024-03-22T11:23:08;18.05;;;9.32;;
7529;SDS011;3806;52.270;10.544;2024-03-22T11:25:34;18.50;;;9.25;;
7529;SDS011;3806;52.270;10.544;2024-03-22T11:28:00;20.17;;;10.35;;
7529;SDS011;3806;52.270;10.544;2024-03-22T11:30:27;15.52;;;8.88;;
7529;SDS011;3806;52.270;10.544;2024-03-22T11:32:54;19.23;;;9.00;;
7529;SDS011;3806;52.270;10.544;2024-03-22T11:35:20;17.63;;;8.63;;
7529;SDS011;3806;52.270;10.544;2024-03-22T11:37:46;18.38;;;8.98;;
7529;SDS011;3806;52.270;10.544;2024-03-22T11:40:12;15.40;;;7.78;;
7529;SDS011;3806;52.270;10.544;2024-03-22T11:42:41;13.77;;;6.05;;
7529;SDS011;3806;52.270;10.544;2024-03-22T11:45:11;9.80;;;5.15;;
7529;SDS011;3806;52.270;10.544;2024-03-22T11:47:39;10.88;;;5.95;;
7529;SDS011;3806;52.270;10.544;2024-03-22T11:50:04;14.68;;;5.75;;
7529;SDS011;3806;52.270;10.544;2024-03-22T11:52:30;12.60;;;6.10;;
7529;SDS011;3806;52.270;10.544;2024-03-22T11:54:56;9.10;;;5.13;;
7529;SDS011;3806;52.270;10.544;2024-03-22T11:57:22;12.68;;;5.68;;
7529;SDS011;3806;52.270;10.544;2024-03-22T11:59:48;11.48;;;5.60;;
7529;SDS011;3806;52.270;10.544;2024-03-22T12:02:15;10.80;;;4.97;;
7529;SDS011;3806;52.270;10.544;2024-03-22T12:04:47;9.18;;;5.55;;
7529;SDS011;3806;52.270;10.544;2024-03-22T12:07:13;9.57;;;5.18;;
7529;SDS011;3806;52.270;10.544;2024-03-22T12:09:39;10.98;;;5.35;;
7529;SDS011;3806;52.270;10.544;2024-03-22T12:12:09;8.38;;;4.65;;
7529;SDS011;3806;52.270;10.544;2024-03-22T12:14:36;8.60;;;4.03;;
7529;SDS011;3806;52.270;10.544;2024-03-22T12:17:03;11.40;;;5.05;;
7529;SDS011;3806;52.270;10.544;2024-03-22T12:19:29;9.68;;;5.03;;
7529;SDS011;3806;52.270;10.544;2024-03-22T12:21:54;10.05;;;5.15;;
7529;SDS011;3806;52.270;10.544;2024-03-22T12:24:21;9.80;;;5.15;;
7529;SDS011;3806;52.270;10.544;2024-03-22T12:26:47;9.20;;;4.80;;
7529;SDS011;3806;52.270;10.544;2024-03-22T12:29:13;9.50;;;5.18;;
7529;SDS011;3806;52.270;10.544;2024-03-22T12:31:40;10.60;;;4.68;;
7529;SDS011;3806;52.270;10.544;2024-03-22T12:34:06;8.68;;;4.75;;
7529;SDS011;3806;52.270;10.544;2024-03-22T12:36:31;9.73;;;4.68;;
7529;SDS011;3806;52.270;10.544;2024-03-22T12:38:57;8.93;;;5.07;;
7529;SDS011;3806;52.270;10.544;2024-03-22T12:41:22;7.97;;;5.05;;
7529;SDS011;3806;52.270;10.544;2024-03-22T12:43:48;9.57;;;4.88;;
7529;SDS011;3806;52.270;10.544;2024-03-22T12:46:13;9.23;;;5.72;;
7529;SDS011;3806;52.270;10.544;2024-03-22T12:48:39;11.32;;;5.30;;
7529;SDS011;3806;52.270;10.544;2024-03-22T12:51:05;9.55;;;5.70;;
7529;SDS011;3806;52.270;10.544;2024-03-22T12:53:31;10.85;;;5.80;;
7529;SDS011;3806;52.270;10.544;2024-03-22T12:55:57;10.63;;;5.68;;
7529;SDS011;3806;52.270;10.544;2024-03-22T12:58:22;11.63;;;5.28;;
7529;SDS011;3806;52.270;10.544;2024-03-22T13:00:48;9.82;;;5.18;;
7529;SDS011;3806;52.270;10.544;2024-03-22T13:03:13;9.23;;;5.70;;
7529;SDS011;3806;52.270;10.544;2024-03-22T13:05:40;9.70;;;5.35;;
7529;SDS011;3806;52.270;10.544;2024-03-22T13:08:06;9.13;;;5.28;;
7529;SDS011;3806;52.270;10.544;2024-03-22T13:10:32;9.32;;;5.75;;
7529;SDS011;3806;52.270;10.544;2024-03-22T13:12:57;10.07;;;5.43;;
7529;SDS011;3806;52.270;10.544;2024-03-22T13:15:23;10.02;;;5.50;;
7529;SDS011;3806;52.270;10.544;2024-03-22T13:17:49;11.02;;;6.45;;
7529;SDS011;3806;52.270;10.544;2024-03-22T13:20:15;10.75;;;5.63;;
7529;SDS011;3806;52.270;10.544;2024-03-22T13:22:43;10.95;;;6.38;;
7529;SDS011;3806;52.270;10.544;2024-03-22T13:25:09;10.32;;;5.75;;
7529;SDS011;3806;52.270;10.544;2024-03-22T13:27:35;11.07;;;6.45;;
7529;SDS011;3806;52.270;10.544;2024-03-22T13:30:04;9.98;;;6.00;;
7529;SDS011;3806;52.270;10.544;2024-03-22T13:32:30;10.75;;;5.90;;
7529;SDS011;3806;52.270;10.544;2024-03-22T13:34:56;9.70;;;5.75;;
7529;SDS011;3806;52.270;10.544;2024-03-22T13:37:22;11.07;;;6.45;;
7529;SDS011;3806;52.270;10.544;2024-03-22T13:39:50;11.18;;;6.05;;
7529;SDS011;3806;52.270;10.544;2024-03-22T13:42:16;12.45;;;5.68;;
7529;SDS011;3806;52.270;10.544;2024-03-22T13:44:42;12.85;;;6.43;;
7529;SDS011;3806;52.270;10.544;2024-03-22T13:47:07;13.32;;;7.03;;
7529;SDS011;3806;52.270;10.544;2024-03-22T13:49:33;10.35;;;6.35;;
7529;SDS011;3806;52.270;10.544;2024-03-22T13:51:59;13.38;;;7.60;;
7529;SDS011;3806;52.270;10.544;2024-03-22T13:54:24;11.00;;;6.63;;
7529;SDS011;3806;52.270;10.544;2024-03-22T13:56:50;10.25;;;6.53;;
7529;SDS011;3806;52.270;10.544;2024-03-22T13:59:16;12.15;;;7.07;;
7529;SDS011;3806;52.270;10.544;2024-03-22T14:01:41;14.70;;;7.50;;
7529;SDS011;3806;52.270;10.544;2024-03-22T14:04:10;12.73;;;7.28;;
7529;SDS011;3806;52.270;10.544;2024-03-22T14:06:37;16.40;;;8.60;;
7529;SDS011;3806;52.270;10.544;2024-03-22T14:09:03;13.10;;;8.40;;
7529;SDS011;3806;52.270;10.544;2024-03-22T14:11:30;14.15;;;7.88;;
7529;SDS011;3806;52.270;10.544;2024-03-22T14:13:56;18.15;;;9.15;;
7529;SDS011;3806;52.270;10.544;2024-03-22T14:16:22;15.73;;;9.40;;
7529;SDS011;3806;52.270;10.544;2024-03-22T14:18:48;15.63;;;8.82;;
7529;SDS011;3806;52.270;10.544;2024-03-22T14:21:14;13.82;;;8.52;;
7529;SDS011;3806;52.270;10.544;2024-03-22T14:23:44;19.00;;;9.18;;
7529;SDS011;3806;52.270;10.544;2024-03-22T14:26:13;12.45;;;9.05;;
7529;SDS011;3806;52.270;10.544;2024-03-22T14:28:40;15.02;;;9.35;;
7529;SDS011;3806;52.270;10.544;2024-03-22T14:31:09;16.63;;;10.68;;
7529;SDS011;3806;52.270;10.544;2024-03-22T14:33:35;14.75;;;9.45;;